Time;durP1;ratioP1;P1;durP2;ratioP2;P2;SDS_P1;SDS_P2;PMS_P1;PMS_P2;Temp;Humidity;BMP_temperature;BMP_pressure;BME280_temperature;BME280_humidity;BME280_pressure;Samples;Min_cycle;Max_cycle;Signal;HPM_P1;HPM_P2
2022/07/15 00:02:24;;;;;;;149.17;144.07;;;21.60;97.50;;;;;;5019108;28;21021;-82
2022/07/15 00:04:51;;;;;;;121.63;117.67;;;21.60;97.50;;;;;;5030317;28;20458;-82
2022/07/15 00:07:20;;;;;;;145.20;140.37;;;21.60;97.60;;;;;;5026481;28;20446;-83
2022/07/15 00:12:33;;;;;;;154.97;149.87;;;21.50;97.70;;;;;;5028894;28;20629;-82
2022/07/15 00:15:01;;;;;;;164.03;158.57;;;21.50;97.80;;;;;;5028846;28;20435;-83
2022/07/15 00:17:28;;;;;;;196.73;190.13;;;21.50;97.90;;;;;;5026798;28;20451;-82
2022/07/15 00:19:55;;;;;;;165.33;159.83;;;21.50;98.00;;;;;;5038421;28;20430;-83
2022/07/15 00:22:21;;;;;;;174.77;168.97;;;21.50;97.90;;;;;;5028971;28;20490;-83
2022/07/15 00:24:48;;;;;;;209.05;201.98;;;21.50;98.00;;;;;;5039483;28;20821;-82
2022/07/15 00:27:15;;;;;;;215.10;208.07;;;21.50;98.10;;;;;;5022941;28;20208;-83
2022/07/15 00:29:43;;;;;;;216.83;209.77;;;21.50;98.10;;;;;;5031490;28;20484;-83
2022/07/15 00:32:10;;;;;;;211.23;204.20;;;21.40;98.20;;;;;;5026961;28;20465;-84
2022/07/15 00:34:37;;;;;;;249.03;240.70;;;21.40;98.20;;;;;;5040297;28;20445;-83
2022/07/15 00:37:04;;;;;;;218.30;211.07;;;21.40;98.30;;;;;;5039096;28;20469;-83
2022/07/15 00:39:31;;;;;;;196.43;189.90;;;21.40;98.30;;;;;;5033243;28;20463;-83
2022/07/15 00:41:58;;;;;;;205.20;198.43;;;21.40;98.30;;;;;;5034923;28;20480;-82
2022/07/15 00:44:25;;;;;;;202.37;195.67;;;21.40;98.40;;;;;;5039431;28;20203;-83
2022/07/15 00:46:53;;;;;;;197.53;190.87;;;21.30;98.70;;;;;;5035470;28;20455;-83
2022/07/15 00:49:20;;;;;;;255.10;246.60;;;21.30;98.30;;;;;;5016156;28;20458;-83
2022/07/15 00:51:50;;;;;;;308.93;298.23;;;21.30;98.40;;;;;;5037062;28;20454;-83
2022/07/15 00:54:23;;;;;;;259.63;250.93;;;21.30;98.50;;;;;;5033619;28;20463;-82
2022/07/15 00:56:53;;;;;;;283.07;273.47;;;21.30;98.50;;;;;;5048491;28;20448;-83
2022/07/15 00:59:22;;;;;;;317.00;306.00;;;21.30;98.60;;;;;;5040314;28;20470;-82
2022/07/15 01:01:49;;;;;;;341.57;329.33;;;21.30;98.70;;;;;;5026653;28;20493;-85
2022/07/15 01:04:19;;;;;;;355.80;342.90;;;21.30;98.70;;;;;;5019529;28;20873;-84
2022/07/15 01:06:45;;;;;;;370.03;356.53;;;21.30;98.70;;;;;;5036404;28;20457;-83
2022/07/15 01:09:12;;;;;;;328.93;317.37;;;21.30;98.80;;;;;;5033859;28;20456;-83
2022/07/15 01:11:39;;;;;;;399.50;384.40;;;21.20;98.80;;;;;;5044816;28;20810;-83
2022/07/15 01:14:06;;;;;;;446.10;428.40;;;21.20;98.90;;;;;;5024142;28;20463;-81
2022/07/15 01:16:33;;;;;;;572.77;545.63;;;21.20;99.00;;;;;;5039061;28;20465;-83
2022/07/15 01:19:00;;;;;;;514.47;491.73;;;21.20;99.00;;;;;;5036118;28;20465;-82
2022/07/15 01:21:29;;;;;;;569.63;543.63;;;21.20;99.10;;;;;;5046347;28;20481;-83
2022/07/15 01:23:55;;;;;;;343.42;330.55;;;21.10;99.10;;;;;;5024261;28;20703;-83
2022/07/15 01:26:22;;;;;;;427.15;410.58;;;21.10;99.10;;;;;;5043011;28;20662;-82
2022/07/15 01:28:49;;;;;;;451.33;433.00;;;21.10;99.20;;;;;;5019509;28;20210;-83
2022/07/15 01:31:16;;;;;;;497.03;475.70;;;21.10;99.30;;;;;;5027564;28;20191;-82
2022/07/15 01:33:42;;;;;;;496.87;475.50;;;21.10;99.40;;;;;;5025820;28;20501;-82
2022/07/15 01:36:10;;;;;;;560.67;534.80;;;21.10;99.50;;;;;;5038385;28;20545;-82
2022/07/15 01:38:38;;;;;;;433.10;416.35;;;21.10;99.60;;;;;;5030436;28;20622;-82
2022/07/15 01:41:05;;;;;;;542.17;517.55;;;21.10;99.60;;;;;;5023752;28;20216;-82
2022/07/15 01:43:32;;;;;;;413.23;397.05;;;21.10;99.60;;;;;;5019385;28;20207;-82
2022/07/15 01:45:59;;;;;;;313.85;302.65;;;21.00;99.60;;;;;;5021393;28;20563;-82
2022/07/15 01:51:21;;;;;;;398.55;383.63;;;21.00;99.80;;;;;;5014072;28;20188;-82
2022/07/15 01:53:49;;;;;;;412.13;396.58;;;21.00;99.90;;;;;;5011956;28;20218;-83
2022/07/15 01:56:16;;;;;;;375.13;361.33;;;21.00;99.90;;;;;;5036712;28;20939;-83
2022/07/15 01:58:43;;;;;;;324.67;313.33;;;21.00;99.90;;;;;;5037451;28;20212;-83
2022/07/15 02:01:10;;;;;;;329.48;317.92;;;20.90;99.90;;;;;;5035340;28;20209;-82
2022/07/15 02:03:36;;;;;;;304.38;293.88;;;20.90;99.90;;;;;;5014586;28;20242;-82
2022/07/15 02:06:03;;;;;;;261.80;253.00;;;20.90;99.90;;;;;;5043093;28;20188;-82
2022/07/15 02:08:30;;;;;;;263.87;254.97;;;20.90;99.90;;;;;;5029348;28;20192;-82
2022/07/15 02:10:58;;;;;;;253.45;245.00;;;20.80;99.90;;;;;;5033544;28;20439;-83
2022/07/15 02:13:25;;;;;;;266.00;257.10;;;20.80;99.90;;;;;;5018473;28;20203;-83
2022/07/15 02:15:52;;;;;;;237.00;229.20;;;20.80;99.90;;;;;;5040137;28;20597;-84
2022/07/15 02:18:18;;;;;;;223.77;216.38;;;20.80;99.90;;;;;;5031379;28;20703;-83
2022/07/15 02:20:46;;;;;;;254.07;245.35;;;20.70;99.90;;;;;;5038390;28;20203;-82
2022/07/15 02:23:13;;;;;;;265.77;256.92;;;20.70;99.90;;;;;;5028486;28;20230;-85
2022/07/15 02:25:41;;;;;;;253.18;244.70;;;20.70;99.90;;;;;;5037677;28;20213;-86
2022/07/15 02:28:09;;;;;;;256.90;248.30;;;20.70;99.90;;;;;;5043102;28;20239;-86
2022/07/15 02:30:38;;;;;;;259.33;250.77;;;20.70;99.90;;;;;;5039776;28;20195;-87
2022/07/15 02:33:06;;;;;;;259.92;251.18;;;20.70;99.90;;;;;;5021800;28;20563;-86
2022/07/15 02:35:34;;;;;;;266.77;257.88;;;20.60;99.90;;;;;;5038108;28;20195;-86
2022/07/15 02:38:02;;;;;;;260.17;251.40;;;20.60;99.90;;;;;;5045810;28;20192;-87
2022/07/15 02:40:30;;;;;;;246.80;238.80;;;20.60;99.90;;;;;;5014173;28;20294;-87
2022/07/15 02:42:59;;;;;;;254.88;246.38;;;20.60;99.90;;;;;;5032832;28;20218;-85
2022/07/15 02:45:30;;;;;;;310.48;299.52;;;20.60;99.90;;;;;;5026332;28;20196;-86
2022/07/15 02:47:57;;;;;;;261.80;253.02;;;20.50;99.90;;;;;;5020092;28;20203;-87
2022/07/15 02:50:24;;;;;;;327.20;315.60;;;20.50;99.90;;;;;;5042485;28;20207;-87
2022/07/15 02:52:50;;;;;;;565.65;539.20;;;20.50;99.90;;;;;;5022162;28;20202;-87
2022/07/15 02:55:17;;;;;;;405.23;389.98;;;20.50;99.90;;;;;;5028617;28;20401;-87
2022/07/15 02:57:44;;;;;;;763.83;722.20;;;20.50;99.90;;;;;;5034081;28;20198;-87
2022/07/15 03:00:13;;;;;;;486.35;466.02;;;20.50;99.90;;;;;;5038231;28;20198;-87
2022/07/15 03:02:42;;;;;;;557.08;531.50;;;20.40;99.90;;;;;;5018520;28;20226;-86
2022/07/15 03:05:09;;;;;;;534.95;511.35;;;20.40;99.90;;;;;;5034737;28;20199;-86
2022/07/15 03:07:36;;;;;;;607.15;577.70;;;20.40;99.90;;;;;;5033364;28;20202;-86
2022/07/15 03:10:03;;;;;;;665.08;631.15;;;20.40;99.90;;;;;;5038156;28;20205;-87
2022/07/15 03:12:30;;;;;;;598.75;570.05;;;20.40;99.90;;;;;;5031984;28;20191;-87
2022/07/15 03:14:57;;;;;;;716.50;678.38;;;20.30;99.90;;;;;;5036887;28;20280;-87
2022/07/15 03:17:24;;;;;;;718.35;680.00;;;20.30;99.90;;;;;;5022380;28;20206;-85
2022/07/15 03:19:55;;;;;;;756.58;715.28;;;20.30;99.90;;;;;;5041063;28;20198;-87
2022/07/15 03:22:22;;;;;;;742.33;701.97;;;20.30;99.90;;;;;;5041377;28;20214;-87
2022/07/15 03:24:49;;;;;;;702.08;665.15;;;20.30;99.90;;;;;;5045252;28;20223;-87
2022/07/15 03:27:16;;;;;;;740.97;700.83;;;20.30;99.90;;;;;;5032982;28;20428;-87
2022/07/15 03:29:43;;;;;;;728.83;689.65;;;20.30;99.90;;;;;;5032520;28;20227;-88
2022/07/15 03:32:10;;;;;;;756.45;714.85;;;20.20;99.90;;;;;;5026468;28;20205;-88
2022/07/15 03:34:37;;;;;;;739.47;699.22;;;20.20;99.90;;;;;;5018561;28;20211;-86
2022/07/15 03:37:05;;;;;;;730.50;691.10;;;20.20;99.90;;;;;;5041715;28;20547;-87
2022/07/15 03:39:31;;;;;;;744.92;704.38;;;20.20;99.90;;;;;;5037224;28;20208;-86
2022/07/15 03:41:58;;;;;;;946.00;881.65;;;20.20;99.90;;;;;;5033461;28;20221;-84
2022/07/15 03:44:25;;;;;;;908.85;854.60;;;20.20;99.90;;;;;;5040363;28;20225;-85
2022/07/15 03:46:52;;;;;;;597.72;569.38;;;20.10;99.90;;;;;;5030734;28;20564;-87
2022/07/15 03:49:18;;;;;;;380.52;366.33;;;20.10;99.90;;;;;;5021465;28;20210;-86
2022/07/15 03:51:45;;;;;;;323.70;311.98;;;20.10;99.90;;;;;;5036174;28;20658;-86
2022/07/15 03:54:13;;;;;;;440.38;422.80;;;20.10;99.90;;;;;;5037523;28;20200;-86
2022/07/15 03:56:40;;;;;;;501.25;480.00;;;20.10;99.90;;;;;;5033705;28;20209;-85
2022/07/15 03:59:07;;;;;;;440.15;422.38;;;20.10;99.90;;;;;;5040494;28;20198;-85
2022/07/15 04:01:34;;;;;;;497.27;475.92;;;20.10;99.90;;;;;;5022381;28;20199;-86
2022/07/15 04:04:01;;;;;;;452.20;433.92;;;20.00;99.90;;;;;;5015547;28;20223;-86
2022/07/15 04:06:27;;;;;;;361.27;347.95;;;20.00;99.90;;;;;;5027625;28;20193;-86
2022/07/15 04:08:54;;;;;;;302.52;292.17;;;20.00;99.90;;;;;;5034134;28;20199;-86
2022/07/15 04:11:22;;;;;;;264.90;256.13;;;20.00;99.90;;;;;;5039664;28;20699;-86
2022/07/15 04:13:49;;;;;;;244.45;236.35;;;20.00;99.90;;;;;;5030450;28;20280;-85
2022/07/15 04:16:16;;;;;;;233.75;226.02;;;20.00;99.90;;;;;;5039944;28;20557;-86
2022/07/15 04:18:43;;;;;;;146.05;141.20;;;19.90;99.90;;;;;;5031121;28;20210;-86
2022/07/15 04:21:10;;;;;;;200.18;193.63;;;19.90;99.90;;;;;;5037892;28;20199;-86
2022/07/15 04:23:37;;;;;;;201.07;194.40;;;19.90;99.90;;;;;;5032416;28;20238;-86
2022/07/15 04:26:04;;;;;;;171.75;166.02;;;19.90;99.90;;;;;;5035868;28;20208;-85
2022/07/15 04:28:32;;;;;;;154.82;149.77;;;19.90;99.90;;;;;;5031994;28;20208;-88
2022/07/15 04:30:59;;;;;;;155.43;150.32;;;19.90;99.90;;;;;;5038981;28;20190;-86
2022/07/15 04:33:26;;;;;;;153.52;148.63;;;19.90;99.90;;;;;;5033572;28;20651;-86
2022/07/15 04:35:54;;;;;;;144.07;139.35;;;19.90;99.90;;;;;;5040833;28;20212;-86
2022/07/15 04:38:21;;;;;;;154.85;149.80;;;19.80;99.90;;;;;;5032463;28;20657;-86
2022/07/15 04:40:47;;;;;;;184.18;177.95;;;19.80;99.90;;;;;;5028155;28;20209;-87
2022/07/15 04:43:14;;;;;;;178.80;172.90;;;19.80;99.90;;;;;;5039702;28;20219;-86
2022/07/15 04:45:42;;;;;;;228.25;220.75;;;19.80;99.90;;;;;;5028985;28;20209;-87
2022/07/15 04:50:51;;;;;;;185.02;178.95;;;19.80;99.90;;;;;;5033835;28;20205;-87
2022/07/15 04:53:18;;;;;;;214.75;207.77;;;19.80;99.90;;;;;;5036072;28;20540;-85
2022/07/15 04:55:46;;;;;;;219.55;212.25;;;19.80;99.90;;;;;;5031052;28;20322;-86
2022/07/15 04:58:14;;;;;;;203.25;196.32;;;19.80;99.90;;;;;;5022658;28;20207;-89
2022/07/15 05:00:42;;;;;;;226.75;219.38;;;19.80;99.90;;;;;;5028691;28;20210;-87
2022/07/15 05:03:09;;;;;;;255.80;247.38;;;19.80;99.90;;;;;;5029797;28;20232;-87
2022/07/15 05:05:36;;;;;;;309.08;298.20;;;19.70;99.90;;;;;;5033075;28;20650;-87
2022/07/15 05:08:03;;;;;;;294.80;284.80;;;19.70;99.90;;;;;;5016552;28;20204;-87
2022/07/15 05:10:30;;;;;;;300.85;290.25;;;19.70;99.90;;;;;;5033686;28;20201;-88
2022/07/15 05:12:57;;;;;;;332.52;320.92;;;19.70;99.90;;;;;;5041386;28;20200;-87
2022/07/15 05:15:24;;;;;;;364.73;351.58;;;19.70;99.90;;;;;;5037477;28;20247;-87
2022/07/15 05:17:52;;;;;;;375.63;361.42;;;19.70;99.90;;;;;;5034324;28;20257;-86
2022/07/15 05:20:19;;;;;;;372.17;358.60;;;19.70;99.90;;;;;;5037046;28;20205;-87
2022/07/15 05:22:46;;;;;;;445.02;427.00;;;19.70;99.90;;;;;;5031504;28;20680;-87
2022/07/15 05:25:13;;;;;;;304.73;294.27;;;19.60;99.90;;;;;;5039584;28;20246;-86
2022/07/15 05:27:39;;;;;;;289.98;280.10;;;19.60;99.90;;;;;;5032838;28;20255;-86
2022/07/15 05:30:09;;;;;;;210.10;203.40;;;19.60;99.90;;;;;;5042597;28;20207;-86
2022/07/15 05:32:35;;;;;;;203.90;197.20;;;19.60;99.90;;;;;;5035940;28;20591;-87
2022/07/15 05:35:04;;;;;;;215.52;208.55;;;19.60;99.90;;;;;;5027681;28;20698;-87
2022/07/15 05:37:31;;;;;;;209.93;203.05;;;19.60;99.90;;;;;;5042387;28;20197;-87
2022/07/15 05:39:58;;;;;;;250.02;241.65;;;19.70;99.90;;;;;;5034016;28;20196;-86
2022/07/15 05:42:25;;;;;;;224.77;217.45;;;19.80;99.90;;;;;;5028904;28;20205;-87
2022/07/15 05:44:52;;;;;;;294.42;284.30;;;19.80;99.90;;;;;;5028761;28;20219;-87
2022/07/15 05:47:19;;;;;;;328.00;316.52;;;19.90;99.90;;;;;;5033837;28;20527;-85
2022/07/15 05:49:45;;;;;;;390.50;375.95;;;19.90;99.90;;;;;;5035519;28;20677;-86
2022/07/15 05:52:13;;;;;;;586.33;558.95;;;20.00;99.90;;;;;;5043076;28;20271;-87
2022/07/15 05:54:40;;;;;;;410.35;394.65;;;20.10;99.90;;;;;;5031588;28;20566;-87
2022/07/15 05:57:07;;;;;;;280.20;270.70;;;20.30;99.90;;;;;;5015370;28;20199;-84
2022/07/15 05:59:33;;;;;;;221.10;213.90;;;20.30;99.90;;;;;;5026724;28;20202;-85
2022/07/15 06:02:00;;;;;;;224.43;217.07;;;20.30;99.90;;;;;;5025785;28;20218;-86
2022/07/15 06:04:27;;;;;;;216.50;209.40;;;20.50;99.90;;;;;;5027625;28;20225;-86
2022/07/15 06:06:54;;;;;;;216.18;209.18;;;20.80;99.90;;;;;;5040489;28;20191;-85
2022/07/15 06:09:22;;;;;;;269.75;260.65;;;21.10;99.90;;;;;;5022526;28;20192;-84
2022/07/15 06:11:49;;;;;;;283.45;273.83;;;21.20;99.90;;;;;;5040399;28;20199;-84
2022/07/15 06:14:16;;;;;;;295.07;284.63;;;21.50;99.90;;;;;;5038609;28;20194;-83
2022/07/15 06:16:43;;;;;;;297.17;286.80;;;21.70;99.30;;;;;;5026252;28;20466;-84
2022/07/15 06:19:10;;;;;;;263.87;254.97;;;21.90;98.70;;;;;;5033546;28;21100;-84
2022/07/15 06:21:37;;;;;;;269.97;260.80;;;21.90;98.30;;;;;;5037513;28;20465;-83
2022/07/15 06:24:04;;;;;;;258.67;249.83;;;22.00;98.20;;;;;;5029078;28;20485;-85
2022/07/15 06:26:32;;;;;;;310.37;299.57;;;22.10;97.80;;;;;;5035984;28;20465;-85
2022/07/15 06:28:59;;;;;;;304.00;293.37;;;22.10;97.60;;;;;;5040887;28;20461;-85
2022/07/15 06:31:26;;;;;;;319.07;307.87;;;22.20;97.30;;;;;;5040695;28;20544;-84
2022/07/15 06:33:53;;;;;;;345.73;333.30;;;22.40;97.10;;;;;;5022236;28;20463;-84
2022/07/15 06:36:20;;;;;;;343.93;331.57;;;22.50;96.90;;;;;;5034926;28;20990;-85
2022/07/15 06:38:49;;;;;;;355.77;342.77;;;22.60;96.40;;;;;;5017780;28;20454;-83
2022/07/15 06:41:16;;;;;;;320.37;308.90;;;22.60;96.10;;;;;;5037611;28;20864;-84
2022/07/15 06:43:45;;;;;;;345.20;332.53;;;22.60;96.00;;;;;;5031809;28;20482;-84
2022/07/15 06:46:12;;;;;;;304.90;293.87;;;22.60;96.00;;;;;;5040160;28;20567;-85
2022/07/15 06:48:39;;;;;;;310.33;299.43;;;22.50;96.00;;;;;;5031280;28;20455;-85
2022/07/15 06:51:06;;;;;;;339.17;326.87;;;22.40;96.10;;;;;;5042914;28;20498;-85
2022/07/15 06:53:33;;;;;;;316.97;305.53;;;22.40;96.10;;;;;;5043283;28;20462;-85
2022/07/15 06:56:00;;;;;;;336.40;324.30;;;22.40;96.30;;;;;;5046068;28;20461;-85
2022/07/15 06:58:29;;;;;;;386.90;372.43;;;22.30;96.20;;;;;;5031495;28;20930;-85
2022/07/15 07:00:58;;;;;;;378.07;363.93;;;22.20;96.30;;;;;;5036800;28;20458;-85
2022/07/15 07:03:25;;;;;;;411.13;395.13;;;22.10;96.40;;;;;;5032254;28;20864;-86
2022/07/15 07:05:52;;;;;;;504.17;482.17;;;22.10;96.70;;;;;;5044525;28;20960;-83
2022/07/15 07:08:19;;;;;;;419.70;403.37;;;22.00;96.70;;;;;;5028421;28;20507;-85
2022/07/15 07:10:45;;;;;;;401.63;386.43;;;22.00;96.90;;;;;;5049607;28;20800;-85
2022/07/15 07:13:13;;;;;;;501.97;480.27;;;21.90;96.90;;;;;;5033745;28;20455;-84
2022/07/15 07:15:39;;;;;;;455.30;436.77;;;21.90;97.40;;;;;;5034889;28;20454;-85
2022/07/15 07:18:07;;;;;;;261.97;252.97;;;21.80;97.10;;;;;;5038427;28;20462;-86
2022/07/15 07:20:34;;;;;;;275.67;266.27;;;21.80;97.20;;;;;;5036967;28;20961;-86
2022/07/15 07:23:01;;;;;;;271.17;261.67;;;21.90;97.20;;;;;;5028395;28;21124;-84
2022/07/15 07:25:27;;;;;;;245.17;237.07;;;22.00;97.00;;;;;;5042007;28;20447;-84
2022/07/15 07:27:54;;;;;;;244.00;235.67;;;22.10;96.80;;;;;;5025580;28;20470;-85
2022/07/15 07:30:21;;;;;;;258.27;249.37;;;22.20;96.60;;;;;;5032767;28;20824;-87
2022/07/15 07:32:48;;;;;;;266.20;256.97;;;22.30;96.50;;;;;;5016193;28;20502;-85
2022/07/15 07:35:16;;;;;;;266.47;257.37;;;22.50;96.30;;;;;;5037991;28;20442;-87
2022/07/15 07:37:42;;;;;;;227.30;219.77;;;22.40;96.00;;;;;;5040024;28;20469;-86
2022/07/15 07:40:10;;;;;;;248.07;239.80;;;22.50;96.10;;;;;;5032898;28;20463;-87
2022/07/15 07:42:38;;;;;;;236.57;228.60;;;22.30;96.10;;;;;;5030258;28;20882;-85
2022/07/15 07:45:06;;;;;;;246.63;238.17;;;22.20;96.30;;;;;;5019764;28;20477;-85
2022/07/15 07:47:37;;;;;;;261.67;252.77;;;22.20;96.40;;;;;;5025425;28;20481;-84
2022/07/15 07:50:03;;;;;;;281.77;272.07;;;22.40;96.30;;;;;;5024961;28;20468;-85
2022/07/15 07:52:32;;;;;;;286.63;276.70;;;22.50;96.00;;;;;;5018741;28;20466;-86
2022/07/15 07:54:58;;;;;;;299.27;288.97;;;22.60;96.00;;;;;;5015518;28;20455;-87
2022/07/15 07:57:25;;;;;;;287.30;277.33;;;22.50;95.90;;;;;;5035273;28;20449;-84
2022/07/15 07:59:52;;;;;;;286.00;276.10;;;22.50;96.10;;;;;;5014262;28;20436;-86
2022/07/15 08:02:19;;;;;;;260.10;251.33;;;22.50;96.00;;;;;;5030578;28;20466;-86
2022/07/15 08:04:45;;;;;;;279.03;269.37;;;22.40;96.10;;;;;;5029273;28;20845;-84
2022/07/15 08:07:12;;;;;;;280.03;270.40;;;22.20;96.20;;;;;;5026002;28;20447;-85
2022/07/15 08:09:40;;;;;;;231.60;223.83;;;22.10;96.50;;;;;;5036210;28;20461;-87
2022/07/15 08:12:07;;;;;;;254.83;246.23;;;22.00;96.80;;;;;;5026956;28;20444;-83
2022/07/15 08:14:34;;;;;;;261.43;252.63;;;21.90;96.90;;;;;;5019943;28;20490;-88
2022/07/15 08:17:01;;;;;;;271.00;261.77;;;21.90;97.20;;;;;;5036579;28;20461;-87
2022/07/15 08:19:28;;;;;;;283.57;273.80;;;22.20;97.00;;;;;;5036968;28;20484;-89
2022/07/15 08:21:54;;;;;;;249.47;241.07;;;22.40;96.40;;;;;;5039178;28;20805;-82
2022/07/15 08:24:21;;;;;;;236.27;228.03;;;22.50;96.00;;;;;;5020818;28;20485;-86
2022/07/15 08:26:49;;;;;;;270.33;261.13;;;22.60;95.60;;;;;;5032437;28;20459;-84
2022/07/15 08:29:16;;;;;;;203.60;196.87;;;22.50;95.70;;;;;;5034839;28;20463;-84
2022/07/15 08:31:43;;;;;;;222.67;215.03;;;22.40;95.80;;;;;;5029117;28;20466;-85
2022/07/15 08:34:09;;;;;;;209.00;202.13;;;22.30;96.20;;;;;;5031420;28;20458;-85
2022/07/15 08:36:36;;;;;;;232.03;224.47;;;22.20;96.40;;;;;;5037404;28;20497;-85
2022/07/15 08:39:03;;;;;;;267.03;257.97;;;22.20;96.60;;;;;;5025811;28;20450;-84
2022/07/15 08:41:34;;;;;;;228.40;220.90;;;22.30;96.50;;;;;;5027964;28;20450;-85
2022/07/15 08:44:02;;;;;;;331.77;319.97;;;22.50;96.00;;;;;;5035657;28;21019;-84
2022/07/15 08:46:29;;;;;;;334.67;322.57;;;22.80;95.70;;;;;;5024592;28;20466;-87
2022/07/15 08:49:02;;;;;;;320.67;309.13;;;23.00;95.20;;;;;;5029006;28;20453;-84
2022/07/15 08:51:31;;;;;;;249.37;241.07;;;23.20;94.50;;;;;;5031263;28;20469;-86
2022/07/15 08:53:58;;;;;;;204.13;197.37;;;23.20;94.10;;;;;;5037821;28;20530;-90
2022/07/15 08:56:25;;;;;;;226.17;218.60;;;23.00;94.40;;;;;;5019217;28;20451;-88
2022/07/15 08:58:52;;;;;;;202.67;196.00;;;22.70;94.80;;;;;;5040349;28;20447;-89
2022/07/15 09:01:20;;;;;;;197.20;190.60;;;22.60;95.40;;;;;;5024551;28;20458;-86
2022/07/15 09:03:47;;;;;;;198.43;191.77;;;22.40;96.10;;;;;;5020087;28;20486;-86
2022/07/15 09:06:31;;;;;;;186.20;179.90;;;22.50;95.40;;;;;;5012317;28;20466;-84
2022/07/15 09:08:58;;;;;;;207.97;200.87;;;22.50;95.30;;;;;;5022802;28;20442;-88
2022/07/15 09:11:28;;;;;;;219.40;211.87;;;22.60;95.30;;;;;;5034219;28;20473;-83
2022/07/15 09:13:59;;;;;;;180.10;173.90;;;22.60;95.20;;;;;;5037357;28;20465;-87
2022/07/15 09:16:27;;;;;;;198.13;191.63;;;22.60;94.90;;;;;;5023767;28;20471;-86
2022/07/15 09:18:54;;;;;;;210.10;203.10;;;22.60;95.00;;;;;;5030997;28;20461;-88
2022/07/15 09:21:23;;;;;;;188.93;182.70;;;22.70;94.90;;;;;;5026892;28;20577;-86
2022/07/15 09:23:51;;;;;;;198.73;192.03;;;22.60;94.90;;;;;;5033126;28;20486;-85
2022/07/15 09:26:26;;;;;;;226.13;218.53;;;22.60;95.30;;;;;;5027148;28;20456;-85
2022/07/15 09:28:53;;;;;;;215.43;208.20;;;22.70;95.00;;;;;;5039856;28;20477;-85
2022/07/15 09:34:17;;;;;;;190.50;183.97;;;23.00;94.60;;;;;;5022853;28;20444;-84
2022/07/15 09:36:50;;;;;;;194.77;188.20;;;23.10;94.50;;;;;;5012502;28;20447;-85
2022/07/15 09:39:18;;;;;;;212.37;205.27;;;23.30;94.50;;;;;;5032314;28;20505;-84
2022/07/15 09:41:46;;;;;;;193.17;186.67;;;23.30;94.30;;;;;;5033592;28;20446;-86
2022/07/15 09:44:14;;;;;;;214.20;206.70;;;23.40;94.00;;;;;;5044129;28;20478;-84
2022/07/15 09:46:47;;;;;;;222.47;215.00;;;23.40;93.60;;;;;;5018763;28;20451;-83
2022/07/15 09:49:17;;;;;;;210.77;203.60;;;23.40;93.30;;;;;;5032786;28;20455;-85
2022/07/15 09:51:47;;;;;;;222.57;215.00;;;23.20;93.50;;;;;;5033307;28;20493;-85
2022/07/15 09:54:14;;;;;;;204.00;197.27;;;23.20;93.70;;;;;;5021178;28;20451;-85
2022/07/15 09:56:41;;;;;;;210.57;203.53;;;23.00;93.50;;;;;;5031254;28;20458;-86
2022/07/15 09:59:08;;;;;;;182.10;175.90;;;22.90;94.50;;;;;;5036218;28;20449;-85
2022/07/15 10:01:36;;;;;;;213.30;206.17;;;22.90;94.60;;;;;;5032242;28;20491;-86
2022/07/15 10:04:05;;;;;;;207.37;200.27;;;22.90;94.40;;;;;;5027233;28;20486;-87
2022/07/15 10:06:35;;;;;;;149.83;145.00;;;22.80;94.60;;;;;;5020247;28;20450;-83
2022/07/15 10:09:03;;;;;;;117.50;113.47;;;22.70;93.70;;;;;;5023675;28;20457;-83
2022/07/15 10:11:32;;;;;;;117.67;113.77;;;22.70;93.30;;;;;;5034547;28;20475;-82
2022/07/15 10:14:18;;;;;;;141.90;137.07;;;22.60;93.60;;;;;;5024859;28;20441;-83
2022/07/15 10:17:11;;;;;;;129.10;124.67;;;22.70;94.20;;;;;;5019884;28;20459;-84
2022/07/15 10:20:02;;;;;;;122.83;118.83;;;22.70;94.30;;;;;;5013838;28;20467;-83
2022/07/15 10:22:43;;;;;;;132.97;128.63;;;22.80;93.80;;;;;;5024153;28;20462;-85
2022/07/15 10:25:21;;;;;;;119.33;115.40;;;22.80;94.30;;;;;;5025400;28;21007;-84
2022/07/15 10:27:58;;;;;;;152.80;147.77;;;22.80;94.50;;;;;;5014639;28;21036;-84
2022/07/15 10:30:25;;;;;;;140.97;136.30;;;22.90;94.40;;;;;;5023895;28;20497;-83
2022/07/15 10:33:14;;;;;;;143.67;138.90;;;22.90;94.40;;;;;;5031928;28;20470;-84
2022/07/15 10:35:45;;;;;;;149.37;144.37;;;23.00;93.40;;;;;;5020192;28;20529;-83
2022/07/15 10:38:31;;;;;;;162.87;157.33;;;22.90;93.40;;;;;;5017022;28;20969;-83
2022/07/15 10:41:03;;;;;;;125.90;121.83;;;22.90;93.90;;;;;;5022751;28;20441;-83
2022/07/15 10:43:42;;;;;;;174.10;168.23;;;22.80;94.40;;;;;;5037431;28;20457;-83
2022/07/15 10:46:23;;;;;;;176.33;170.50;;;22.80;94.30;;;;;;5026226;28;20478;-83
2022/07/15 10:48:52;;;;;;;273.50;264.07;;;22.80;94.60;;;;;;5018728;28;20473;-83
2022/07/15 10:51:45;;;;;;;322.70;311.23;;;22.70;94.50;;;;;;5036247;28;20461;-83
2022/07/15 10:54:39;;;;;;;346.23;333.70;;;22.60;94.40;;;;;;5023131;28;20468;-83
2022/07/15 10:57:07;;;;;;;332.77;320.87;;;22.60;94.80;;;;;;5021946;28;20466;-84
2022/07/15 10:59:40;;;;;;;350.10;337.40;;;22.60;94.20;;;;;;5025657;28;20470;-84
2022/07/15 11:02:17;;;;;;;337.77;325.57;;;22.60;94.60;;;;;;5019600;28;20473;-88
2022/07/15 11:04:45;;;;;;;340.87;328.53;;;22.50;94.80;;;;;;5021792;28;20518;-85
2022/07/15 11:07:31;;;;;;;264.27;255.07;;;22.50;95.00;;;;;;5030935;28;20957;-85
2022/07/15 11:10:14;;;;;;;318.40;307.10;;;22.40;94.80;;;;;;5033114;28;20458;-85
2022/07/15 11:13:00;;;;;;;306.67;295.87;;;22.50;94.70;;;;;;5022820;28;20479;-85
2022/07/15 11:15:28;;;;;;;310.70;299.87;;;22.50;94.40;;;;;;5025477;28;20841;-85
2022/07/15 11:17:56;;;;;;;272.27;262.73;;;22.50;95.30;;;;;;5040093;28;20824;-85
2022/07/15 11:20:26;;;;;;;281.03;271.33;;;22.50;94.90;;;;;;5035556;28;20817;-84
2022/07/15 11:22:55;;;;;;;317.93;306.50;;;22.50;94.60;;;;;;5024790;28;20466;-86
2022/07/15 11:25:23;;;;;;;336.40;324.20;;;22.50;95.10;;;;;;5027596;28;20844;-86
2022/07/15 11:28:04;;;;;;;320.63;309.27;;;22.50;95.10;;;;;;5025371;28;20478;-85
2022/07/15 11:30:33;;;;;;;316.50;305.43;;;22.60;95.20;;;;;;5032996;28;20802;-87
2022/07/15 11:33:02;;;;;;;346.07;333.53;;;22.60;95.00;;;;;;5037556;28;20987;-86
2022/07/15 11:35:30;;;;;;;376.20;362.03;;;22.60;94.60;;;;;;5029152;28;20465;-86
2022/07/15 11:38:03;;;;;;;366.00;352.50;;;22.60;94.70;;;;;;5034779;28;20957;-85
2022/07/15 11:46:06;;;;;;;323.90;312.43;;;22.70;94.40;;;;;;5013896;28;20509;-86
2022/07/15 11:48:37;;;;;;;329.70;317.97;;;22.70;94.30;;;;;;5022204;28;20478;-87
2022/07/15 11:51:06;;;;;;;342.27;329.77;;;22.80;94.00;;;;;;5021992;28;20470;-86
2022/07/15 11:53:37;;;;;;;377.73;363.70;;;22.80;94.50;;;;;;5024964;28;20467;-86
2022/07/15 11:56:05;;;;;;;350.53;337.70;;;22.80;94.20;;;;;;5040838;28;20516;-86
2022/07/15 11:58:36;;;;;;;403.33;387.60;;;22.80;93.80;;;;;;5023127;28;20458;-88
2022/07/15 12:01:07;;;;;;;388.30;373.50;;;22.80;93.80;;;;;;5023703;28;20975;-86
2022/07/15 12:03:42;;;;;;;399.83;384.60;;;22.80;94.20;;;;;;5036797;28;20458;-87
2022/07/15 12:06:12;;;;;;;421.87;405.47;;;22.80;93.90;;;;;;5027903;28;20473;-86
2022/07/15 12:08:45;;;;;;;366.40;352.90;;;22.80;94.60;;;;;;5024340;28;20814;-86
2022/07/15 12:11:16;;;;;;;320.07;308.77;;;22.80;93.40;;;;;;5040784;28;20445;-86
2022/07/15 12:13:47;;;;;;;340.23;327.93;;;22.80;93.20;;;;;;5043197;28;20976;-85
2022/07/15 12:16:14;;;;;;;346.87;334.27;;;22.80;93.30;;;;;;5025906;28;20950;-87
2022/07/15 12:18:42;;;;;;;351.47;338.57;;;22.90;93.70;;;;;;5036527;28;20463;-86
2022/07/15 12:21:09;;;;;;;327.33;315.57;;;22.90;94.20;;;;;;5016603;28;20822;-85
2022/07/15 12:23:36;;;;;;;315.90;304.70;;;22.80;93.60;;;;;;5018304;28;20466;-86
2022/07/15 12:26:08;;;;;;;299.37;288.87;;;22.80;94.10;;;;;;5027233;28;20488;-85
2022/07/15 12:28:36;;;;;;;294.27;283.97;;;22.90;93.30;;;;;;5021864;28;20482;-85
2022/07/15 12:31:05;;;;;;;336.67;324.57;;;22.90;94.10;;;;;;5029715;28;20956;-86
2022/07/15 12:33:36;;;;;;;326.10;314.50;;;22.90;94.00;;;;;;5026950;28;20458;-83